createdAt,value
2018-06-20T00:00:09.357Z,75.40
2018-06-20T00:02:44.952Z,75.60
2018-06-20T00:05:23.821Z,75.50
2018-06-20T00:08:00.931Z,75.70
2018-06-20T00:10:37.747Z,76.00
2018-06-20T00:13:13.456Z,75.80
2018-06-20T00:15:50.397Z,76.10
2018-06-20T00:18:27.162Z,76.00
2018-06-20T00:21:02.753Z,75.90
2018-06-20T00:23:39.915Z,76.20
2018-06-20T00:26:15.783Z,76.00
2018-06-20T00:28:52.127Z,76.40
2018-06-20T00:31:29.180Z,76.10
2018-06-20T00:34:06.900Z,76.40
2018-06-20T00:36:43.458Z,76.10
2018-06-20T00:39:21.473Z,76.60
2018-06-20T00:41:57.480Z,76.10
2018-06-20T00:44:34.350Z,76.30
2018-06-20T00:47:12.003Z,75.90
2018-06-20T00:49:48.922Z,76.10
2018-06-20T00:52:27.863Z,76.80
2018-06-20T00:55:05.056Z,76.70
2018-06-20T00:57:41.924Z,75.80
2018-06-20T01:00:18.748Z,76.20
2018-06-20T01:02:54.730Z,76.40
2018-06-20T01:05:30.528Z,76.40
2018-06-20T01:08:07.232Z,75.90
2018-06-20T01:10:43.248Z,75.60
2018-06-20T01:13:19.601Z,76.20
2018-06-20T01:15:55.929Z,76.10
2018-06-20T01:21:09.360Z,76.90
2018-06-20T01:23:47.801Z,76.40
2018-06-20T01:26:23.951Z,76.50
2018-06-20T01:29:00.577Z,77.00
2018-06-20T01:31:37.197Z,76.60
2018-06-20T01:34:13.776Z,77.00
2018-06-20T01:36:49.369Z,77.10
2018-06-20T01:39:25.262Z,76.70
2018-06-20T01:42:01.632Z,77.20
2018-06-20T01:44:37.756Z,77.30
2018-06-20T01:47:13.838Z,77.40
2018-06-20T01:49:51.048Z,77.20
2018-06-20T01:52:28.145Z,77.70
2018-06-20T01:55:05.267Z,77.60
2018-06-20T01:57:41.853Z,77.60
2018-06-20T02:00:18.229Z,77.80
2018-06-20T02:02:55.081Z,77.70
2018-06-20T02:05:30.952Z,77.60
2018-06-20T02:08:07.902Z,77.60
2018-06-20T02:10:43.945Z,77.80
2018-06-20T02:13:20.226Z,78.00
2018-06-20T02:15:56.494Z,78.20
2018-06-20T02:18:32.815Z,77.70
2018-06-20T02:21:09.351Z,78.00
2018-06-20T02:23:45.235Z,78.10
2018-06-20T02:26:21.516Z,78.20
2018-06-20T02:28:57.556Z,78.20
2018-06-20T02:31:33.508Z,78.40
2018-06-20T02:34:10.897Z,78.50
2018-06-20T02:36:46.993Z,78.20
2018-06-20T02:39:23.715Z,78.40
2018-06-20T02:41:59.635Z,78.50
2018-06-20T02:44:38.272Z,78.80
2018-06-20T02:47:14.906Z,78.30
2018-06-20T02:49:51.642Z,78.30
2018-06-20T02:52:27.664Z,78.50
2018-06-20T02:55:04.427Z,78.60
2018-06-20T02:57:40.836Z,78.70
2018-06-20T03:00:18.279Z,79.20
2018-06-20T03:02:55.123Z,78.90
2018-06-20T03:05:31.348Z,79.00
2018-06-20T03:08:07.655Z,79.30
2018-06-20T03:10:43.838Z,79.10
2018-06-20T03:13:19.913Z,79.20
2018-06-20T03:15:57.400Z,79.00
2018-06-20T03:18:34.049Z,79.10
2018-06-20T03:21:10.463Z,79.20
2018-06-20T03:23:46.831Z,79.30
2018-06-20T03:26:23.708Z,79.20
2018-06-20T03:28:59.535Z,79.20
2018-06-20T03:31:37.078Z,79.30
2018-06-20T03:34:13.988Z,79.50
2018-06-20T03:36:50.072Z,79.40
2018-06-20T03:39:27.152Z,79.50
2018-06-20T03:42:03.376Z,79.70
2018-06-20T03:44:39.413Z,79.70
2018-06-20T03:47:15.632Z,79.90
2018-06-20T03:49:52.682Z,79.30
2018-06-20T03:52:29.576Z,79.50
2018-06-20T03:55:05.985Z,79.70
2018-06-20T03:57:42.140Z,79.60
2018-06-20T04:00:18.628Z,79.50
2018-06-20T04:02:54.706Z,79.90
2018-06-20T04:05:33.384Z,79.80
2018-06-20T04:08:10.220Z,79.50
2018-06-20T04:10:46.724Z,78.80
2018-06-20T04:13:24.754Z,79.30
2018-06-20T04:16:01.702Z,79.40
2018-06-20T04:18:42.697Z,78.60
2018-06-20T04:21:18.742Z,78.80
2018-06-20T04:23:56.171Z,79.40
2018-06-20T04:26:32.289Z,78.60
2018-06-20T04:29:08.724Z,78.50
2018-06-20T04:31:45.509Z,79.20
2018-06-20T04:34:22.208Z,78.10
2018-06-20T04:36:58.880Z,77.50
2018-06-20T04:39:35.183Z,78.00
2018-06-20T04:42:11.226Z,78.00
2018-06-20T04:44:47.655Z,77.40
2018-06-20T04:47:24.712Z,77.00
2018-06-20T04:50:01.327Z,77.80
2018-06-20T04:52:38.349Z,77.30
2018-06-20T04:55:14.965Z,76.20
2018-06-20T04:57:59.000Z,75.90
2018-06-20T05:00:34.832Z,76.30
2018-06-20T05:03:11.128Z,75.50
2018-06-20T05:05:47.844Z,74.90
2018-06-20T05:08:24.333Z,74.70
2018-06-20T05:11:01.425Z,74.10
2018-06-20T05:13:38.119Z,74.00
2018-06-20T05:16:15.365Z,73.50
2018-06-20T05:18:51.717Z,73.90
2018-06-20T05:21:28.487Z,74.10
2018-06-20T05:24:06.539Z,73.50
2018-06-20T05:26:44.364Z,73.50
2018-06-20T05:29:20.250Z,73.10
2018-06-20T05:31:57.766Z,72.60
2018-06-20T05:34:35.165Z,72.40
2018-06-20T05:37:11.923Z,73.10
2018-06-20T05:39:49.483Z,72.90
2018-06-20T05:42:25.591Z,72.40
2018-06-20T05:45:03.500Z,72.50
2018-06-20T05:47:39.734Z,71.50
2018-06-20T05:50:16.481Z,71.30
2018-06-20T05:52:53.172Z,71.40
2018-06-20T05:55:29.911Z,71.50
2018-06-20T05:58:06.088Z,71.80
2018-06-20T06:00:43.168Z,70.80
2018-06-20T06:03:20.276Z,70.20
2018-06-20T06:06:11.415Z,70.00
2018-06-20T06:08:48.977Z,69.20
2018-06-20T06:11:26.488Z,69.30
2018-06-20T06:14:02.548Z,68.50
2018-06-20T06:16:41.600Z,67.20
2018-06-20T06:19:18.795Z,66.30
2018-06-20T06:21:55.201Z,66.40
2018-06-20T06:24:32.688Z,66.80
2018-06-20T06:27:09.686Z,67.20
2018-06-20T06:32:23.129Z,66.40
2018-06-20T06:35:01.372Z,66.70
2018-06-20T06:37:39.275Z,66.50
2018-06-20T06:40:15.668Z,66.60
2018-06-20T06:42:51.968Z,65.70
2018-06-20T06:45:28.418Z,65.40
2018-06-20T06:48:06.597Z,65.60
2018-06-20T06:50:44.193Z,65.40
2018-06-20T06:53:21.601Z,64.70
2018-06-20T06:55:58.725Z,64.90
2018-06-20T06:58:35.285Z,64.50
2018-06-20T07:01:12.977Z,63.50
2018-06-20T07:03:48.953Z,62.10
2018-06-20T07:06:25.815Z,62.20
2018-06-20T07:09:01.861Z,62.10
2018-06-20T07:11:38.232Z,63.00
2018-06-20T07:14:16.360Z,61.90
2018-06-20T07:16:54.008Z,62.10
2018-06-20T07:19:30.604Z,62.60
2018-06-20T07:22:07.977Z,61.10
2018-06-20T07:24:45.646Z,60.20
2018-06-20T07:27:23.156Z,59.10
2018-06-20T07:29:59.917Z,59.60
2018-06-20T07:32:37.064Z,59.00
2018-06-20T07:35:13.507Z,59.20
2018-06-20T07:37:49.709Z,58.70
2018-06-20T07:40:27.489Z,58.40
2018-06-20T07:43:03.308Z,59.60
2018-06-20T07:45:40.774Z,58.40
2018-06-20T07:48:18.046Z,58.50
2018-06-20T07:50:55.425Z,57.80
2018-06-20T07:53:31.589Z,56.80
2018-06-20T07:56:07.441Z,57.40
2018-06-20T07:58:48.393Z,58.00
2018-06-20T08:01:47.257Z,55.60
2018-06-20T08:04:29.837Z,55.00
2018-06-20T08:07:13.142Z,53.80
2018-06-20T08:09:54.920Z,51.30
2018-06-20T08:12:38.047Z,52.10
2018-06-20T08:15:18.989Z,49.00
2018-06-20T08:18:02.469Z,48.40
2018-06-20T08:20:38.905Z,46.40
2018-06-20T08:23:16.534Z,44.00
2018-06-20T08:25:53.314Z,39.90
2018-06-20T08:28:31.060Z,39.90
2018-06-20T08:31:06.895Z,41.10
2018-06-20T08:33:43.097Z,41.40
2018-06-20T08:36:18.793Z,40.40
2018-06-20T08:38:54.857Z,40.10
2018-06-20T08:41:31.943Z,38.00
2018-06-20T08:44:08.720Z,37.20
2018-06-20T08:46:46.760Z,34.90
2018-06-20T08:49:24.218Z,33.80
2018-06-20T08:52:00.861Z,36.30
2018-06-20T08:54:37.288Z,36.20
2018-06-20T08:57:14.848Z,34.00
2018-06-20T08:59:53.034Z,33.30
2018-06-20T09:02:31.179Z,32.20
2018-06-20T09:05:13.886Z,33.80
2018-06-20T09:07:56.533Z,33.90
2018-06-20T09:10:39.673Z,33.60
2018-06-20T09:13:21.668Z,33.50
2018-06-20T09:16:03.614Z,31.80
2018-06-20T09:18:46.092Z,32.20
2018-06-20T09:21:22.768Z,33.20
2018-06-20T09:23:59.061Z,32.30
2018-06-20T09:26:35.959Z,34.80
2018-06-20T09:29:12.961Z,34.30
2018-06-20T09:31:50.544Z,31.90
2018-06-20T09:34:28.215Z,32.40
2018-06-20T09:37:05.732Z,31.90
2018-06-20T09:39:44.035Z,33.50
2018-06-20T09:42:21.493Z,34.00
2018-06-20T09:44:58.869Z,34.00
2018-06-20T09:47:34.874Z,33.60
2018-06-20T09:50:16.333Z,31.60
2018-06-20T09:52:53.340Z,30.10
2018-06-20T09:55:31.006Z,31.50
2018-06-20T09:58:07.439Z,33.10
2018-06-20T10:00:50.090Z,35.00
2018-06-20T10:03:32.660Z,34.80
2018-06-20T10:06:15.497Z,35.60
2018-06-20T10:08:57.035Z,37.40
2018-06-20T10:11:40.236Z,40.80
2018-06-20T10:14:16.787Z,40.90
2018-06-20T10:16:53.777Z,37.40
2018-06-20T10:19:31.420Z,34.10
2018-06-20T10:22:08.631Z,31.80
2018-06-20T10:24:45.165Z,34.60
2018-06-20T10:27:22.625Z,37.30
2018-06-20T10:30:00.112Z,40.60
2018-06-20T10:32:37.489Z,41.60
2018-06-20T10:35:13.981Z,38.50
2018-06-20T10:37:51.473Z,36.00
2018-06-20T10:40:28.641Z,33.60
2018-06-20T10:43:06.378Z,33.10
2018-06-20T10:45:49.348Z,31.40
2018-06-20T10:48:27.321Z,29.20
2018-06-20T10:51:03.744Z,31.20
2018-06-20T10:53:41.113Z,33.60
2018-06-20T10:56:24.745Z,35.50
2018-06-20T11:01:08.687Z,35.00
2018-06-20T11:03:50.640Z,34.40
2018-06-20T11:06:34.272Z,37.80
2018-06-20T11:09:16.448Z,36.60
2018-06-20T11:11:59.646Z,33.70
2018-06-20T11:14:37.154Z,34.60
2018-06-20T11:17:14.023Z,36.80
2018-06-20T11:19:51.648Z,36.70
2018-06-20T11:22:28.669Z,35.80
2018-06-20T11:25:05.870Z,34.00
2018-06-20T11:27:44.403Z,30.80
2018-06-20T11:30:21.451Z,29.90
2018-06-20T11:32:59.596Z,29.90
2018-06-20T11:35:36.033Z,29.00
2018-06-20T11:38:13.886Z,29.50
2018-06-20T11:40:51.427Z,28.60
2018-06-20T11:43:29.956Z,29.20
2018-06-20T11:46:12.964Z,28.90
2018-06-20T11:48:50.677Z,27.50
2018-06-20T11:51:27.358Z,27.10
2018-06-20T11:54:03.729Z,27.40
2018-06-20T11:56:41.145Z,28.80
2018-06-20T11:59:23.932Z,30.90
2018-06-20T12:02:06.983Z,31.20
2018-06-20T12:04:48.900Z,30.30
2018-06-20T12:07:32.170Z,31.00
2018-06-20T12:12:20.854Z,30.00
2018-06-20T12:17:09.778Z,30.00
2018-06-20T12:19:51.172Z,29.40
2018-06-20T12:22:34.736Z,29.50
2018-06-20T12:25:17.357Z,28.70
2018-06-20T12:27:59.969Z,28.00
2018-06-20T12:30:42.574Z,27.70
2018-06-20T12:33:24.256Z,30.00
2018-06-20T12:36:07.392Z,33.20
2018-06-20T12:38:49.401Z,33.80
2018-06-20T12:41:32.510Z,35.00
2018-06-20T12:44:15.618Z,32.80
2018-06-20T12:47:00.681Z,32.50
2018-06-20T12:49:39.767Z,31.10
2018-06-20T12:52:16.497Z,29.40
2018-06-20T12:54:53.205Z,28.70
2018-06-20T12:57:29.712Z,28.60
2018-06-20T13:00:07.526Z,29.00
2018-06-20T13:02:44.936Z,28.30
2018-06-20T13:05:22.144Z,29.70
2018-06-20T13:07:59.615Z,29.10
2018-06-20T13:10:37.292Z,29.20
2018-06-20T13:13:14.277Z,29.40
2018-06-20T13:15:52.033Z,29.30
2018-06-20T13:18:29.548Z,29.40
2018-06-20T13:21:06.749Z,29.40
2018-06-20T13:23:42.735Z,29.10
2018-06-20T13:26:19.908Z,29.30
2018-06-20T13:28:57.384Z,30.60
2018-06-20T13:31:39.329Z,30.90
2018-06-20T13:34:24.790Z,31.40
2018-06-20T13:37:06.600Z,30.20
2018-06-20T13:39:49.662Z,29.30
2018-06-20T13:42:32.079Z,30.50
2018-06-20T13:45:15.224Z,32.30
2018-06-20T13:47:58.082Z,33.20
2018-06-20T13:50:35.828Z,33.20
2018-06-20T13:53:11.408Z,33.80
2018-06-20T13:55:48.612Z,34.90
2018-06-20T13:58:24.554Z,33.70
2018-06-20T14:01:02.070Z,32.40
2018-06-20T14:03:39.877Z,32.20
2018-06-20T14:06:16.878Z,34.40
2018-06-20T14:08:54.477Z,33.90
2018-06-20T14:11:32.137Z,35.40
2018-06-20T14:14:10.377Z,36.20
2018-06-20T14:16:48.564Z,34.80
2018-06-20T14:19:31.280Z,35.80
2018-06-20T14:22:08.156Z,37.90
2018-06-20T14:24:45.293Z,37.80
2018-06-20T14:27:22.707Z,36.50
2018-06-20T14:29:59.569Z,35.90
2018-06-20T14:32:42.685Z,35.30
2018-06-20T14:35:24.658Z,35.00
2018-06-20T14:38:07.554Z,35.30
2018-06-20T14:40:49.744Z,35.60
2018-06-20T14:43:32.355Z,34.60
2018-06-20T14:46:15.205Z,35.10
2018-06-20T14:48:53.500Z,34.20
2018-06-20T14:51:31.572Z,34.50
2018-06-20T14:54:08.004Z,32.80
2018-06-20T14:56:45.581Z,34.50
2018-06-20T14:59:23.288Z,33.70
2018-06-20T15:02:00.699Z,34.10
2018-06-20T15:04:37.420Z,35.70
2018-06-20T15:07:14.656Z,35.50
2018-06-20T15:09:50.732Z,35.50
2018-06-20T15:12:27.129Z,34.20
2018-06-20T15:15:03.841Z,35.00
2018-06-20T15:17:40.874Z,35.10
2018-06-20T15:20:17.998Z,35.60
2018-06-20T15:22:54.790Z,35.60
2018-06-20T15:25:34.228Z,35.00
2018-06-20T15:28:16.125Z,35.40
2018-06-20T15:30:58.138Z,34.70
2018-06-20T15:33:40.647Z,33.90
2018-06-20T15:36:22.890Z,34.70
2018-06-20T15:38:59.619Z,34.80
2018-06-20T15:41:36.400Z,35.40
2018-06-20T15:44:13.259Z,36.30
2018-06-20T15:46:50.935Z,36.70
2018-06-20T15:49:28.194Z,36.80
2018-06-20T15:52:05.379Z,38.60
2018-06-20T15:54:44.650Z,37.90
2018-06-20T15:57:20.901Z,37.40
2018-06-20T15:59:58.169Z,36.70
2018-06-20T16:02:37.114Z,36.50
2018-06-20T16:05:14.140Z,36.50
2018-06-20T16:07:50.396Z,36.00
2018-06-20T16:10:28.081Z,36.50
2018-06-20T16:13:05.421Z,36.60
2018-06-20T16:15:42.229Z,36.20
2018-06-20T16:18:20.161Z,38.00
2018-06-20T16:21:02.755Z,37.20
2018-06-20T16:23:45.412Z,38.00
2018-06-20T16:26:28.099Z,38.10
2018-06-20T16:29:12.006Z,38.30
2018-06-20T16:31:49.681Z,38.20
2018-06-20T16:34:27.010Z,39.00
2018-06-20T16:37:04.252Z,38.10
2018-06-20T16:39:41.545Z,38.50
2018-06-20T16:42:18.601Z,39.20
2018-06-20T16:44:56.421Z,39.80
2018-06-20T16:47:35.261Z,39.60
2018-06-20T16:50:12.769Z,38.50
2018-06-20T16:52:50.153Z,39.00
2018-06-20T16:55:27.348Z,39.60
2018-06-20T16:58:03.782Z,39.40
2018-06-20T17:00:40.037Z,40.70
2018-06-20T17:03:17.120Z,40.20
2018-06-20T17:05:54.540Z,40.10
2018-06-20T17:08:31.773Z,40.40
2018-06-20T17:11:09.696Z,40.40
2018-06-20T17:13:51.272Z,40.50
2018-06-20T17:16:33.860Z,40.90
2018-06-20T17:19:17.236Z,41.00
2018-06-20T17:21:58.736Z,40.40
2018-06-20T17:24:40.209Z,42.30
2018-06-20T17:27:17.300Z,42.70
2018-06-20T17:29:54.787Z,41.90
2018-06-20T17:32:32.265Z,41.80
2018-06-20T17:35:09.729Z,42.50
2018-06-20T17:37:46.774Z,43.40
2018-06-20T17:40:24.560Z,44.30
2018-06-20T17:43:02.547Z,45.40
2018-06-20T17:45:40.577Z,46.20
2018-06-20T17:48:18.326Z,46.30
2018-06-20T17:50:55.696Z,46.00
2018-06-20T17:53:31.965Z,46.30
2018-06-20T17:58:44.500Z,46.40
2018-06-20T18:01:21.912Z,47.70
2018-06-20T18:03:58.021Z,46.60
2018-06-20T18:06:39.257Z,47.10
2018-06-20T18:09:22.549Z,47.80
2018-06-20T18:12:04.310Z,47.00
2018-06-20T18:14:45.436Z,46.80
2018-06-20T18:17:21.488Z,47.20
2018-06-20T18:19:58.333Z,48.40
2018-06-20T18:22:35.784Z,48.30
2018-06-20T18:25:12.964Z,48.90
2018-06-20T18:27:51.332Z,49.00
2018-06-20T18:30:28.141Z,48.50
2018-06-20T18:33:05.859Z,49.90
2018-06-20T18:35:43.394Z,48.20
2018-06-20T18:38:22.573Z,49.50
2018-06-20T18:41:00.095Z,48.40
2018-06-20T18:43:36.687Z,50.20
2018-06-20T18:46:13.488Z,49.90
2018-06-20T18:48:51.679Z,50.10
2018-06-20T18:51:29.582Z,49.00
2018-06-20T18:54:08.400Z,49.60
2018-06-20T18:56:45.237Z,50.00
2018-06-20T18:59:29.915Z,49.20
2018-06-20T19:02:11.973Z,49.80
2018-06-20T19:04:54.688Z,49.50
2018-06-20T19:07:37.674Z,49.30
2018-06-20T19:10:15.397Z,50.20
2018-06-20T19:12:51.895Z,49.70
2018-06-20T19:15:28.492Z,50.00
2018-06-20T19:18:06.286Z,50.80
2018-06-20T19:20:43.681Z,50.60
2018-06-20T19:23:20.040Z,51.50
2018-06-20T19:25:57.451Z,51.20
2018-06-20T19:28:35.641Z,51.30
2018-06-20T19:31:13.348Z,51.70
2018-06-20T19:33:50.731Z,51.90
2018-06-20T19:36:27.214Z,51.60
2018-06-20T19:39:07.732Z,52.00
2018-06-20T19:41:46.310Z,52.70
2018-06-20T19:44:29.151Z,52.70
2018-06-20T19:47:07.013Z,52.50
2018-06-20T19:49:44.303Z,52.80
2018-06-20T19:52:22.474Z,53.70
2018-06-20T19:54:58.462Z,53.70
2018-06-20T19:57:34.845Z,54.10
2018-06-20T20:00:13.064Z,54.40
2018-06-20T20:02:50.305Z,54.80
2018-06-20T20:05:27.914Z,55.70
2018-06-20T20:08:05.237Z,55.30
2018-06-20T20:10:42.320Z,55.40
2018-06-20T20:13:19.385Z,55.50
2018-06-20T20:15:57.400Z,55.40
2018-06-20T20:18:33.799Z,55.40
2018-06-20T20:21:10.036Z,55.30
2018-06-20T20:23:46.809Z,55.10
2018-06-20T20:26:22.952Z,55.10
2018-06-20T20:28:58.661Z,54.80
2018-06-20T20:31:36.459Z,54.80
2018-06-20T20:34:12.823Z,54.80
2018-06-20T20:36:49.539Z,54.70
2018-06-20T20:39:25.792Z,54.60
2018-06-20T20:44:39.878Z,54.50
2018-06-20T20:47:17.301Z,54.60
2018-06-20T20:49:53.177Z,54.80
2018-06-20T20:52:28.731Z,54.70
2018-06-20T20:55:05.661Z,54.80
2018-06-20T20:57:43.190Z,54.80
2018-06-20T21:00:19.336Z,55.00
2018-06-20T21:02:55.433Z,54.90
2018-06-20T21:05:33.198Z,55.00
2018-06-20T21:08:09.393Z,54.80
2018-06-20T21:10:46.169Z,55.20
2018-06-20T21:13:22.735Z,55.30
2018-06-20T21:16:01.203Z,55.60
2018-06-20T21:18:38.741Z,55.70
2018-06-20T21:21:15.145Z,55.90
2018-06-20T21:23:52.747Z,55.80
2018-06-20T21:26:29.028Z,56.00
2018-06-20T21:29:06.442Z,55.70
2018-06-20T21:31:42.370Z,55.80
2018-06-20T21:34:19.426Z,56.20
2018-06-20T21:36:56.725Z,56.40
2018-06-20T21:39:33.668Z,56.40
2018-06-20T21:42:10.344Z,56.50
2018-06-20T21:44:46.094Z,56.70
2018-06-20T21:47:22.724Z,56.70
2018-06-20T21:49:58.746Z,56.70
2018-06-20T21:52:34.946Z,56.80
2018-06-20T21:55:10.730Z,56.90
2018-06-20T21:57:47.492Z,56.60
2018-06-20T22:00:29.161Z,56.70
2018-06-20T22:03:05.582Z,56.80
2018-06-20T22:05:42.865Z,56.70
2018-06-20T22:08:19.931Z,56.60
2018-06-20T22:10:57.161Z,56.50
2018-06-20T22:13:33.465Z,56.30
2018-06-20T22:16:11.555Z,56.20
2018-06-20T22:18:50.034Z,56.30
2018-06-20T22:21:26.019Z,56.40
2018-06-20T22:24:02.328Z,56.50
2018-06-20T22:26:39.616Z,56.50
2018-06-20T22:29:15.651Z,56.50
2018-06-20T22:31:52.968Z,56.40
2018-06-20T22:34:29.233Z,56.50
2018-06-20T22:37:05.650Z,56.40
2018-06-20T22:39:41.226Z,56.30
2018-06-20T22:42:17.304Z,56.40
2018-06-20T22:44:56.017Z,56.40
2018-06-20T22:47:32.330Z,56.30
2018-06-20T22:50:09.180Z,54.90
2018-06-20T22:52:47.216Z,56.40
2018-06-20T22:55:23.938Z,56.40
2018-06-20T22:58:01.061Z,56.40
2018-06-20T23:00:37.924Z,56.40
2018-06-20T23:03:13.522Z,56.30
2018-06-20T23:05:50.038Z,56.30
2018-06-20T23:08:25.272Z,56.40
2018-06-20T23:11:00.942Z,56.40
2018-06-20T23:13:37.018Z,56.50
2018-06-20T23:16:14.517Z,56.50
2018-06-20T23:18:50.283Z,56.50
2018-06-20T23:21:26.012Z,56.30
2018-06-20T23:24:02.412Z,56.50
2018-06-20T23:26:38.684Z,56.60
2018-06-20T23:29:14.835Z,56.80
2018-06-20T23:31:51.817Z,56.90
2018-06-20T23:34:29.653Z,57.30
2018-06-20T23:37:05.980Z,57.30
2018-06-20T23:39:42.956Z,57.40
2018-06-20T23:42:20.249Z,57.30
2018-06-20T23:44:56.251Z,57.20
2018-06-20T23:47:32.221Z,57.30
2018-06-20T23:50:09.149Z,57.50
2018-06-20T23:52:45.139Z,57.70
2018-06-20T23:55:22.074Z,57.80
2018-06-20T23:57:58.221Z,58.00
